Aeroporto :
LOGIN :

Iscrizione | Disclaimer

   EN    FR    IT 

 










Sommario :    VFR   VFR Marginale   IFR   IFR Intensivo   IFR Molto Intensivo
Visibilità : 
Base nubi : 
>= 8 km
>= 3000ft
5 / 8 km
1000 / 3000 ft
1500m / 5 km
500 / 1000 ft
800 / 1500m
200 / 500 ft
< 800m
< 200 ft
Simboli :   Temporali  Nebbia  Neve Forte  Precipitazioni Forti  Vento > 20 kt
SIGMETs :   Varie  Temporali  Ghiacco  Turbolenza  Onda orograficha  Ceneri Vulcaniche






- Altitudine del aeroporto : 909 ft
- Codice IATA : KSF


EDVK - Kassel Calden

ULTIMO METAR :
  • 161820Z 20020G31KT CAVOK 15/04 Q1002

METARs OBSOLETI :
  • 161750Z 20020G33KT CAVOK 14/04 Q1002
  • 161720Z 20019G31KT CAVOK 14/04 Q1002
  • 161650Z 19020G30KT CAVOK 14/04 Q1002
  • 161620Z 20022G36KT CAVOK 14/04 Q1002
  • 161550Z 20017G28KT CAVOK 14/04 Q1003

TAF TAF EDVK
Valido dal 16 a 18 ore il 17 a 03 ore UTC


161700Z 1618/1703 20015G30KT CAVOK
TEMPO 1618/1623 22025G45KT
TEMPO 1621/1624 4500 RA BKN010
BECMG 1700/1703 23013KT



MetMap, La meteo Aeronautica in un colpo d'occhio ! - Copyright ORBIFLY Dicembre 2007 - Disclaimer

ORBIFLY MET'MAP TEAM :

Programmazione e sviluppo : Alexandra Zaïnal
Concezione : Baudouin d'Aumeries
Aiuto per la programmazione : Marc-Olivier Méhu
Supporto tecnico e logistico : Manuel Goepfert
Aiuto per la traduzione : Arnaldo La Scala

Contatto : metmap@orbifly.com




FONTI E CREDITI :

   NOAA